sensor_id;sensor_type;location;lat;lon;timestamp;pressure;altitude;pressure_sealevel;temperature;humidity
68380;BME280;57711;53.196;19.638;2023-04-24T00:02:04;99219.56;;;15.10;45.76
68380;BME280;57711;53.196;19.638;2023-04-24T00:04:33;99219.81;;;15.10;45.86
68380;BME280;57711;53.196;19.638;2023-04-24T00:07:01;99219.71;;;15.09;45.93
68380;BME280;57711;53.196;19.638;2023-04-24T00:09:28;99223.38;;;15.09;46.12
68380;BME280;57711;53.196;19.638;2023-04-24T00:11:55;99217.14;;;15.09;46.03
68380;BME280;57711;53.196;19.638;2023-04-24T00:14:23;99215.55;;;15.07;46.12
68380;BME280;57711;53.196;19.638;2023-04-24T00:16:50;99208.59;;;15.06;46.16
68380;BME280;57711;53.196;19.638;2023-04-24T00:19:17;99204.79;;;15.04;46.19
68380;BME280;57711;53.196;19.638;2023-04-24T00:21:48;99206.89;;;15.04;46.22
68380;BME280;57711;53.196;19.638;2023-04-24T00:24:17;99205.81;;;15.02;46.27
68380;BME280;57711;53.196;19.638;2023-04-24T00:26:45;99204.48;;;15.00;46.41
68380;BME280;57711;53.196;19.638;2023-04-24T00:29:12;99206.08;;;14.99;46.31
68380;BME280;57711;53.196;19.638;2023-04-24T00:31:39;99204.04;;;14.98;46.37
68380;BME280;57711;53.196;19.638;2023-04-24T00:34:06;99206.04;;;14.96;46.37
68380;BME280;57711;53.196;19.638;2023-04-24T00:36:34;99203.91;;;14.94;46.54
68380;BME280;57711;53.196;19.638;2023-04-24T00:39:01;99210.23;;;14.92;46.57
68380;BME280;57711;53.196;19.638;2023-04-24T00:41:29;99205.73;;;14.88;46.50
68380;BME280;57711;53.196;19.638;2023-04-24T00:43:56;99201.42;;;14.86;46.47
68380;BME280;57711;53.196;19.638;2023-04-24T00:46:24;99206.14;;;14.84;46.53
68380;BME280;57711;53.196;19.638;2023-04-24T00:48:51;99203.54;;;14.81;46.71
68380;BME280;57711;53.196;19.638;2023-04-24T00:51:18;99202.68;;;14.79;46.70
68380;BME280;57711;53.196;19.638;2023-04-24T00:53:46;99203.55;;;14.78;46.59
68380;BME280;57711;53.196;19.638;2023-04-24T00:56:13;99204.98;;;14.76;46.61
68380;BME280;57711;53.196;19.638;2023-04-24T00:58:41;99202.56;;;14.73;46.85
68380;BME280;57711;53.196;19.638;2023-04-24T01:01:09;99202.17;;;14.70;46.93
68380;BME280;57711;53.196;19.638;2023-04-24T01:03:38;99202.20;;;14.68;47.00
68380;BME280;57711;53.196;19.638;2023-04-24T01:06:07;99206.04;;;14.67;46.94
68380;BME280;57711;53.196;19.638;2023-04-24T01:08:36;99203.08;;;14.65;46.94
68380;BME280;57711;53.196;19.638;2023-04-24T01:11:05;99204.92;;;14.65;47.13
68380;BME280;57711;53.196;19.638;2023-04-24T01:13:33;99206.21;;;14.67;47.05
68380;BME280;57711;53.196;19.638;2023-04-24T01:16:00;99205.31;;;14.68;47.20
68380;BME280;57711;53.196;19.638;2023-04-24T01:18:28;99204.00;;;14.71;47.32
68380;BME280;57711;53.196;19.638;2023-04-24T01:20:58;99205.52;;;14.75;47.24
68380;BME280;57711;53.196;19.638;2023-04-24T01:23:26;99200.61;;;14.78;47.27
68380;BME280;57711;53.196;19.638;2023-04-24T01:25:53;99201.29;;;14.82;47.48
68380;BME280;57711;53.196;19.638;2023-04-24T01:28:22;99201.10;;;14.85;47.39
68380;BME280;57711;53.196;19.638;2023-04-24T01:30:49;99196.51;;;14.86;47.35
68380;BME280;57711;53.196;19.638;2023-04-24T01:33:17;99193.54;;;14.87;47.55
68380;BME280;57711;53.196;19.638;2023-04-24T01:35:44;99192.50;;;14.88;47.50
68380;BME280;57711;53.196;19.638;2023-04-24T01:38:12;99190.61;;;14.88;47.44
68380;BME280;57711;53.196;19.638;2023-04-24T01:40:39;99187.17;;;14.88;47.51
68380;BME280;57711;53.196;19.638;2023-04-24T01:43:07;99187.15;;;14.90;47.67
68380;BME280;57711;53.196;19.638;2023-04-24T01:45:34;99185.70;;;14.90;47.52
68380;BME280;57711;53.196;19.638;2023-04-24T01:48:03;99184.77;;;14.88;47.73
68380;BME280;57711;53.196;19.638;2023-04-24T01:50:31;99182.66;;;14.88;47.66
68380;BME280;57711;53.196;19.638;2023-04-24T01:52:58;99181.93;;;14.87;47.78
68380;BME280;57711;53.196;19.638;2023-04-24T01:55:25;99179.02;;;14.85;47.91
68380;BME280;57711;53.196;19.638;2023-04-24T01:57:55;99181.80;;;14.86;47.79
68380;BME280;57711;53.196;19.638;2023-04-24T02:00:23;99178.77;;;14.86;47.73
68380;BME280;57711;53.196;19.638;2023-04-24T02:02:52;99175.38;;;14.85;47.99
68380;BME280;57711;53.196;19.638;2023-04-24T02:05:20;99175.91;;;14.84;47.98
68380;BME280;57711;53.196;19.638;2023-04-24T02:07:47;99175.90;;;14.84;47.98
68380;BME280;57711;53.196;19.638;2023-04-24T02:10:14;99172.33;;;14.83;48.17
68380;BME280;57711;53.196;19.638;2023-04-24T02:12:41;99169.96;;;14.82;48.14
68380;BME280;57711;53.196;19.638;2023-04-24T02:15:09;99164.67;;;14.79;47.98
68380;BME280;57711;53.196;19.638;2023-04-24T02:17:37;99160.70;;;14.77;48.13
68380;BME280;57711;53.196;19.638;2023-04-24T02:20:06;99160.80;;;14.78;48.25
68380;BME280;57711;53.196;19.638;2023-04-24T02:22:37;99159.57;;;14.78;48.30
68380;BME280;57711;53.196;19.638;2023-04-24T02:25:05;99158.68;;;14.77;48.21
68380;BME280;57711;53.196;19.638;2023-04-24T02:27:32;99153.98;;;14.77;48.30
68380;BME280;57711;53.196;19.638;2023-04-24T02:29:59;99153.41;;;14.79;48.28
68380;BME280;57711;53.196;19.638;2023-04-24T02:32:27;99154.07;;;14.81;48.25
68380;BME280;57711;53.196;19.638;2023-04-24T02:34:54;99151.95;;;14.83;48.40
68380;BME280;57711;53.196;19.638;2023-04-24T02:37:22;99147.94;;;14.85;48.49
68380;BME280;57711;53.196;19.638;2023-04-24T02:39:49;99146.83;;;14.86;48.25
68380;BME280;57711;53.196;19.638;2023-04-24T02:42:16;99143.56;;;14.88;48.45
68380;BME280;57711;53.196;19.638;2023-04-24T02:44:43;99140.00;;;14.88;48.43
68380;BME280;57711;53.196;19.638;2023-04-24T02:47:10;99136.83;;;14.89;48.58
68380;BME280;57711;53.196;19.638;2023-04-24T02:49:37;99142.86;;;14.89;48.52
68380;BME280;57711;53.196;19.638;2023-04-24T02:52:05;99142.88;;;14.86;48.52
68380;BME280;57711;53.196;19.638;2023-04-24T02:54:32;99140.81;;;14.83;48.61
68380;BME280;57711;53.196;19.638;2023-04-24T02:56:59;99140.90;;;14.83;48.66
68380;BME280;57711;53.196;19.638;2023-04-24T02:59:28;99139.98;;;14.82;48.62
68380;BME280;57711;53.196;19.638;2023-04-24T03:01:56;99139.52;;;14.78;48.59
68380;BME280;57711;53.196;19.638;2023-04-24T03:04:23;99139.36;;;14.76;48.69
68380;BME280;57711;53.196;19.638;2023-04-24T03:06:51;99137.30;;;14.76;48.70
68380;BME280;57711;53.196;19.638;2023-04-24T03:09:20;99138.33;;;14.74;48.81
68380;BME280;57711;53.196;19.638;2023-04-24T03:11:48;99136.95;;;14.72;48.86
68380;BME280;57711;53.196;19.638;2023-04-24T03:14:16;99135.15;;;14.69;48.97
68380;BME280;57711;53.196;19.638;2023-04-24T03:16:43;99137.27;;;14.67;48.94
68380;BME280;57711;53.196;19.638;2023-04-24T03:19:10;99138.09;;;14.64;49.03
68380;BME280;57711;53.196;19.638;2023-04-24T03:21:45;99137.00;;;14.65;49.04
68380;BME280;57711;53.196;19.638;2023-04-24T03:24:12;99136.11;;;14.64;49.11
68380;BME280;57711;53.196;19.638;2023-04-24T03:26:40;99138.52;;;14.64;48.88
68380;BME280;57711;53.196;19.638;2023-04-24T03:29:16;99137.33;;;14.65;49.15
68380;BME280;57711;53.196;19.638;2023-04-24T03:31:44;99137.23;;;14.67;49.40
68380;BME280;57711;53.196;19.638;2023-04-24T03:34:12;99136.05;;;14.67;49.29
68380;BME280;57711;53.196;19.638;2023-04-24T03:36:39;99138.02;;;14.69;49.16
68380;BME280;57711;53.196;19.638;2023-04-24T03:39:07;99138.81;;;14.72;49.34
68380;BME280;57711;53.196;19.638;2023-04-24T03:41:36;99137.98;;;14.74;49.34
68380;BME280;57711;53.196;19.638;2023-04-24T03:44:10;99135.45;;;14.76;49.06
68380;BME280;57711;53.196;19.638;2023-04-24T03:46:37;99136.44;;;14.78;49.14
68380;BME280;57711;53.196;19.638;2023-04-24T03:49:06;99137.58;;;14.79;49.41
68380;BME280;57711;53.196;19.638;2023-04-24T03:51:35;99134.36;;;14.80;49.54
68380;BME280;57711;53.196;19.638;2023-04-24T03:54:14;99133.98;;;14.82;49.48
68380;BME280;57711;53.196;19.638;2023-04-24T03:56:41;99133.80;;;14.82;49.58
68380;BME280;57711;53.196;19.638;2023-04-24T03:59:09;99135.27;;;14.82;49.52
68380;BME280;57711;53.196;19.638;2023-04-24T04:01:36;99133.30;;;14.81;49.49
68380;BME280;57711;53.196;19.638;2023-04-24T04:04:12;99132.40;;;14.81;49.60
68380;BME280;57711;53.196;19.638;2023-04-24T04:06:40;99135.40;;;14.82;49.71
68380;BME280;57711;53.196;19.638;2023-04-24T04:09:07;99140.44;;;14.82;49.48
68380;BME280;57711;53.196;19.638;2023-04-24T04:11:35;99144.47;;;14.82;49.51
68380;BME280;57711;53.196;19.638;2023-04-24T04:14:03;99143.25;;;14.82;49.79
68380;BME280;57711;53.196;19.638;2023-04-24T04:16:31;99146.48;;;14.82;49.73
68380;BME280;57711;53.196;19.638;2023-04-24T04:19:01;99142.77;;;14.81;49.80
68380;BME280;57711;53.196;19.638;2023-04-24T04:21:30;99143.92;;;14.79;49.73
68380;BME280;57711;53.196;19.638;2023-04-24T04:24:08;99145.67;;;14.78;49.90
68380;BME280;57711;53.196;19.638;2023-04-24T04:26:40;99145.67;;;14.77;49.90
68380;BME280;57711;53.196;19.638;2023-04-24T04:29:10;99150.33;;;14.76;49.99
68380;BME280;57711;53.196;19.638;2023-04-24T04:31:40;99154.91;;;14.70;49.89
68380;BME280;57711;53.196;19.638;2023-04-24T04:34:11;99155.08;;;14.66;49.89
68380;BME280;57711;53.196;19.638;2023-04-24T04:36:40;99155.17;;;14.62;49.97
68380;BME280;57711;53.196;19.638;2023-04-24T04:39:21;99155.73;;;14.57;50.06
68380;BME280;57711;53.196;19.638;2023-04-24T04:41:56;99156.72;;;14.53;50.18
68380;BME280;57711;53.196;19.638;2023-04-24T04:44:27;99158.83;;;14.51;50.25
68380;BME280;57711;53.196;19.638;2023-04-24T04:46:57;99158.05;;;14.45;50.25
68380;BME280;57711;53.196;19.638;2023-04-24T04:49:30;99160.70;;;14.43;50.42
68380;BME280;57711;53.196;19.638;2023-04-24T04:51:58;99165.12;;;14.41;50.40
68380;BME280;57711;53.196;19.638;2023-04-24T04:54:26;99160.98;;;14.40;50.45
68380;BME280;57711;53.196;19.638;2023-04-24T04:56:53;99164.25;;;14.38;50.41
68380;BME280;57711;53.196;19.638;2023-04-24T04:59:21;99163.27;;;14.37;50.63
68380;BME280;57711;53.196;19.638;2023-04-24T05:01:50;99163.98;;;14.37;50.79
68380;BME280;57711;53.196;19.638;2023-04-24T05:04:17;99162.48;;;14.38;50.79
68380;BME280;57711;53.196;19.638;2023-04-24T05:06:46;99160.17;;;14.39;50.98
68380;BME280;57711;53.196;19.638;2023-04-24T05:09:14;99165.98;;;14.40;50.95
68380;BME280;57711;53.196;19.638;2023-04-24T05:11:51;99161.84;;;14.41;50.98
68380;BME280;57711;53.196;19.638;2023-04-24T05:14:20;99166.01;;;14.42;51.18
68380;BME280;57711;53.196;19.638;2023-04-24T05:16:48;99159.31;;;14.40;51.19
68380;BME280;57711;53.196;19.638;2023-04-24T05:19:17;99159.98;;;14.39;51.14
68380;BME280;57711;53.196;19.638;2023-04-24T05:21:44;99159.13;;;14.41;51.33
68380;BME280;57711;53.196;19.638;2023-04-24T05:24:12;99157.17;;;14.44;51.38
68380;BME280;57711;53.196;19.638;2023-04-24T05:27:04;99154.11;;;14.47;51.45
68380;BME280;57711;53.196;19.638;2023-04-24T05:29:38;99156.42;;;14.50;51.35
68380;BME280;57711;53.196;19.638;2023-04-24T05:32:06;99160.52;;;14.52;51.64
68380;BME280;57711;53.196;19.638;2023-04-24T05:34:33;99155.31;;;14.53;51.65
68380;BME280;57711;53.196;19.638;2023-04-24T05:37:02;99156.30;;;14.54;51.57
68380;BME280;57711;53.196;19.638;2023-04-24T05:39:29;99150.60;;;14.54;51.57
68380;BME280;57711;53.196;19.638;2023-04-24T05:41:59;99153.17;;;14.54;51.92
68380;BME280;57711;53.196;19.638;2023-04-24T05:44:26;99156.36;;;14.55;51.81
68380;BME280;57711;53.196;19.638;2023-04-24T05:46:53;99154.26;;;14.57;51.90
68380;BME280;57711;53.196;19.638;2023-04-24T05:49:23;99147.73;;;14.60;51.96
68380;BME280;57711;53.196;19.638;2023-04-24T05:51:50;99148.23;;;14.63;51.95
68380;BME280;57711;53.196;19.638;2023-04-24T05:54:17;99146.88;;;14.65;51.88
68380;BME280;57711;53.196;19.638;2023-04-24T05:56:45;99138.59;;;14.68;52.07
68380;BME280;57711;53.196;19.638;2023-04-24T05:59:17;99134.42;;;14.70;52.10
68380;BME280;57711;53.196;19.638;2023-04-24T06:01:44;99133.02;;;14.73;52.13
68380;BME280;57711;53.196;19.638;2023-04-24T06:04:15;99131.29;;;14.77;52.25
68380;BME280;57711;53.196;19.638;2023-04-24T06:06:43;99132.35;;;14.80;52.20
68380;BME280;57711;53.196;19.638;2023-04-24T06:09:10;99131.73;;;14.84;52.30
68380;BME280;57711;53.196;19.638;2023-04-24T06:11:38;99130.73;;;14.87;52.38
68380;BME280;57711;53.196;19.638;2023-04-24T06:14:07;99130.73;;;14.90;52.51
68380;BME280;57711;53.196;19.638;2023-04-24T06:16:57;99128.71;;;14.93;52.44
68380;BME280;57711;53.196;19.638;2023-04-24T06:19:31;99130.08;;;14.98;52.50
68380;BME280;57711;53.196;19.638;2023-04-24T06:21:58;99130.00;;;15.04;52.50
68380;BME280;57711;53.196;19.638;2023-04-24T06:24:28;99128.27;;;15.11;52.67
68380;BME280;57711;53.196;19.638;2023-04-24T06:26:57;99127.77;;;15.18;52.50
68380;BME280;57711;53.196;19.638;2023-04-24T06:29:27;99128.01;;;15.22;52.66
68380;BME280;57711;53.196;19.638;2023-04-24T06:31:54;99122.92;;;15.26;52.67
68380;BME280;57711;53.196;19.638;2023-04-24T06:34:21;99122.42;;;15.31;52.87
68380;BME280;57711;53.196;19.638;2023-04-24T06:36:48;99120.92;;;15.37;52.75
68380;BME280;57711;53.196;19.638;2023-04-24T06:39:15;99116.38;;;15.42;52.71
68380;BME280;57711;53.196;19.638;2023-04-24T06:41:43;99113.45;;;15.44;52.69
68380;BME280;57711;53.196;19.638;2023-04-24T06:44:18;99113.24;;;15.49;53.01
68380;BME280;57711;53.196;19.638;2023-04-24T06:46:45;99110.50;;;15.52;52.96
68380;BME280;57711;53.196;19.638;2023-04-24T06:49:12;99109.30;;;15.56;52.99
68380;BME280;57711;53.196;19.638;2023-04-24T06:51:43;99107.92;;;15.59;53.23
68380;BME280;57711;53.196;19.638;2023-04-24T06:54:10;99106.60;;;15.64;52.95
68380;BME280;57711;53.196;19.638;2023-04-24T06:56:37;99108.33;;;15.69;52.84
68380;BME280;57711;53.196;19.638;2023-04-24T06:59:04;99106.83;;;15.75;53.05
68380;BME280;57711;53.196;19.638;2023-04-24T07:01:31;99101.42;;;15.83;53.16
68380;BME280;57711;53.196;19.638;2023-04-24T07:03:59;99098.61;;;15.91;53.20
68380;BME280;57711;53.196;19.638;2023-04-24T07:06:26;99100.22;;;15.98;53.16
68380;BME280;57711;53.196;19.638;2023-04-24T07:08:54;99097.88;;;16.06;53.30
68380;BME280;57711;53.196;19.638;2023-04-24T07:11:23;99096.40;;;16.16;53.45
68380;BME280;57711;53.196;19.638;2023-04-24T07:13:50;99094.95;;;16.24;53.44
68380;BME280;57711;53.196;19.638;2023-04-24T07:16:17;99093.55;;;16.32;53.55
68380;BME280;57711;53.196;19.638;2023-04-24T07:18:44;99093.16;;;16.39;53.61
68380;BME280;57711;53.196;19.638;2023-04-24T07:21:11;99094.07;;;16.45;53.53
68380;BME280;57711;53.196;19.638;2023-04-24T07:23:38;99093.04;;;16.48;53.32
68380;BME280;57711;53.196;19.638;2023-04-24T07:26:08;99093.42;;;16.50;53.46
68380;BME280;57711;53.196;19.638;2023-04-24T07:28:35;99093.00;;;16.53;53.60
68380;BME280;57711;53.196;19.638;2023-04-24T07:31:02;99095.00;;;16.57;53.47
68380;BME280;57711;53.196;19.638;2023-04-24T07:33:32;99096.41;;;16.61;53.52
68380;BME280;57711;53.196;19.638;2023-04-24T07:35:59;99093.31;;;16.66;53.43
68380;BME280;57711;53.196;19.638;2023-04-24T07:38:26;99092.44;;;16.68;53.71
68380;BME280;57711;53.196;19.638;2023-04-24T07:40:53;99094.50;;;16.69;53.76
68380;BME280;57711;53.196;19.638;2023-04-24T07:43:21;99092.41;;;16.72;53.68
68380;BME280;57711;53.196;19.638;2023-04-24T07:45:50;99093.60;;;16.77;53.90
68380;BME280;57711;53.196;19.638;2023-04-24T07:48:17;99095.28;;;16.85;53.93
68380;BME280;57711;53.196;19.638;2023-04-24T07:50:44;99095.31;;;16.93;53.96
68380;BME280;57711;53.196;19.638;2023-04-24T07:53:12;99086.94;;;16.98;53.86
68380;BME280;57711;53.196;19.638;2023-04-24T07:55:39;99085.10;;;17.07;53.80
68380;BME280;57711;53.196;19.638;2023-04-24T07:58:06;99083.67;;;17.14;53.72
68380;BME280;57711;53.196;19.638;2023-04-24T08:00:33;99081.41;;;17.22;53.77
68380;BME280;57711;53.196;19.638;2023-04-24T08:03:01;99078.30;;;17.28;53.78
68380;BME280;57711;53.196;19.638;2023-04-24T08:05:28;99076.36;;;17.39;53.87
68380;BME280;57711;53.196;19.638;2023-04-24T08:07:55;99075.01;;;17.51;53.90
68380;BME280;57711;53.196;19.638;2023-04-24T08:10:23;99068.17;;;17.61;54.00
68380;BME280;57711;53.196;19.638;2023-04-24T08:12:51;99068.88;;;17.72;53.90
68380;BME280;57711;53.196;19.638;2023-04-24T08:15:18;99071.56;;;17.84;53.88
68380;BME280;57711;53.196;19.638;2023-04-24T08:17:45;99070.21;;;17.97;53.92
68380;BME280;57711;53.196;19.638;2023-04-24T08:20:12;99072.54;;;18.13;53.85
68380;BME280;57711;53.196;19.638;2023-04-24T08:22:42;99070.70;;;18.32;53.92
68380;BME280;57711;53.196;19.638;2023-04-24T08:25:10;99065.91;;;18.53;53.73
68380;BME280;57711;53.196;19.638;2023-04-24T08:27:37;99068.79;;;18.74;53.89
68380;BME280;57711;53.196;19.638;2023-04-24T08:30:06;99069.77;;;18.97;53.79
68380;BME280;57711;53.196;19.638;2023-04-24T08:32:34;99066.22;;;19.17;53.64
68380;BME280;57711;53.196;19.638;2023-04-24T08:35:01;99062.45;;;19.34;53.66
68380;BME280;57711;53.196;19.638;2023-04-24T08:37:28;99065.37;;;19.49;53.55
68380;BME280;57711;53.196;19.638;2023-04-24T08:39:55;99058.92;;;19.64;53.41
68380;BME280;57711;53.196;19.638;2023-04-24T08:42:23;99061.05;;;19.81;53.34
68380;BME280;57711;53.196;19.638;2023-04-24T08:44:51;99057.47;;;19.92;53.10
68380;BME280;57711;53.196;19.638;2023-04-24T08:47:20;99049.09;;;20.04;53.06
68380;BME280;57711;53.196;19.638;2023-04-24T08:49:48;99051.83;;;20.16;52.81
68380;BME280;57711;53.196;19.638;2023-04-24T08:52:16;99051.23;;;20.23;52.73
68380;BME280;57711;53.196;19.638;2023-04-24T08:54:46;99054.45;;;20.31;52.66
68380;BME280;57711;53.196;19.638;2023-04-24T08:57:14;99046.11;;;20.37;52.50
68380;BME280;57711;53.196;19.638;2023-04-24T08:59:41;99039.98;;;20.49;52.53
68380;BME280;57711;53.196;19.638;2023-04-24T09:02:11;99038.59;;;20.59;52.41
68380;BME280;57711;53.196;19.638;2023-04-24T09:04:40;99041.03;;;20.69;52.30
68380;BME280;57711;53.196;19.638;2023-04-24T09:07:10;99040.26;;;20.73;52.20
68380;BME280;57711;53.196;19.638;2023-04-24T09:09:40;99040.44;;;20.78;52.19
68380;BME280;57711;53.196;19.638;2023-04-24T09:12:09;99046.54;;;20.87;52.02
68380;BME280;57711;53.196;19.638;2023-04-24T09:14:36;99044.09;;;20.95;52.01
68380;BME280;57711;53.196;19.638;2023-04-24T09:17:09;99043.24;;;21.05;51.95
68380;BME280;57711;53.196;19.638;2023-04-24T09:19:36;99038.25;;;21.10;52.05
68380;BME280;57711;53.196;19.638;2023-04-24T09:22:07;99043.19;;;21.18;51.92
68380;BME280;57711;53.196;19.638;2023-04-24T09:24:35;99037.80;;;21.23;51.79
68380;BME280;57711;53.196;19.638;2023-04-24T09:27:02;99033.44;;;21.31;51.82
68380;BME280;57711;53.196;19.638;2023-04-24T09:29:29;99031.90;;;21.42;51.83
68380;BME280;57711;53.196;19.638;2023-04-24T09:31:56;99031.39;;;21.44;51.59
68380;BME280;57711;53.196;19.638;2023-04-24T09:34:26;99032.25;;;21.41;51.42
68380;BME280;57711;53.196;19.638;2023-04-24T09:36:54;99024.48;;;21.41;51.29
68380;BME280;57711;53.196;19.638;2023-04-24T09:39:21;99026.88;;;21.40;51.21
68380;BME280;57711;53.196;19.638;2023-04-24T09:41:50;99029.09;;;21.40;51.16
68380;BME280;57711;53.196;19.638;2023-04-24T09:44:19;99026.81;;;21.35;50.99
68380;BME280;57711;53.196;19.638;2023-04-24T09:49:28;99023.28;;;21.45;51.10
68380;BME280;57711;53.196;19.638;2023-04-24T09:52:03;99021.52;;;21.52;50.93
68380;BME280;57711;53.196;19.638;2023-04-24T09:54:31;99022.88;;;21.54;50.99
68380;BME280;57711;53.196;19.638;2023-04-24T09:56:59;99020.20;;;21.55;50.85
68380;BME280;57711;53.196;19.638;2023-04-24T09:59:27;99021.10;;;21.56;50.74
68380;BME280;57711;53.196;19.638;2023-04-24T10:01:54;99016.52;;;21.56;50.67
68380;BME280;57711;53.196;19.638;2023-04-24T10:04:24;99015.64;;;21.58;50.58
68380;BME280;57711;53.196;19.638;2023-04-24T10:06:53;99008.26;;;21.58;50.48
68380;BME280;57711;53.196;19.638;2023-04-24T10:09:25;99005.31;;;21.60;50.36
68380;BME280;57711;53.196;19.638;2023-04-24T10:11:54;99006.16;;;21.63;50.36
68380;BME280;57711;53.196;19.638;2023-04-24T10:14:23;99000.21;;;21.68;50.27
68380;BME280;57711;53.196;19.638;2023-04-24T10:16:54;99006.88;;;21.72;50.22
68380;BME280;57711;53.196;19.638;2023-04-24T10:19:25;99012.38;;;21.74;50.16
68380;BME280;57711;53.196;19.638;2023-04-24T10:21:53;99013.34;;;21.75;49.97
68380;BME280;57711;53.196;19.638;2023-04-24T10:24:21;99011.08;;;21.78;49.98
68380;BME280;57711;53.196;19.638;2023-04-24T10:26:48;99011.33;;;21.81;49.91
68380;BME280;57711;53.196;19.638;2023-04-24T10:29:18;99011.41;;;21.85;49.88
68380;BME280;57711;53.196;19.638;2023-04-24T10:31:45;99007.59;;;21.90;49.72
68380;BME280;57711;53.196;19.638;2023-04-24T10:34:15;99003.62;;;21.93;49.84
68380;BME280;57711;53.196;19.638;2023-04-24T10:36:49;99002.11;;;21.97;49.70
68380;BME280;57711;53.196;19.638;2023-04-24T10:39:18;99007.42;;;22.00;49.60
68380;BME280;57711;53.196;19.638;2023-04-24T10:41:53;99009.19;;;22.05;49.48
68380;BME280;57711;53.196;19.638;2023-04-24T10:44:23;99007.98;;;22.10;49.50
68380;BME280;57711;53.196;19.638;2023-04-24T10:46:55;99012.15;;;22.17;49.32
68380;BME280;57711;53.196;19.638;2023-04-24T10:49:31;99007.37;;;22.18;49.13
68380;BME280;57711;53.196;19.638;2023-04-24T10:52:03;99006.95;;;22.21;49.14
68380;BME280;57711;53.196;19.638;2023-04-24T10:54:45;99008.38;;;22.28;49.32
68380;BME280;57711;53.196;19.638;2023-04-24T10:59:49;99007.66;;;22.28;49.13
68380;BME280;57711;53.196;19.638;2023-04-24T11:02:18;99009.08;;;22.33;48.84
68380;BME280;57711;53.196;19.638;2023-04-24T11:04:45;99004.61;;;22.30;48.62
68380;BME280;57711;53.196;19.638;2023-04-24T11:07:13;98999.98;;;22.29;48.78
68380;BME280;57711;53.196;19.638;2023-04-24T11:09:41;98995.82;;;22.35;48.70
68380;BME280;57711;53.196;19.638;2023-04-24T11:12:11;98999.28;;;22.42;48.52
68380;BME280;57711;53.196;19.638;2023-04-24T11:15:01;98996.88;;;22.33;48.29
68380;BME280;57711;53.196;19.638;2023-04-24T11:17:33;98995.77;;;22.30;48.44
68380;BME280;57711;53.196;19.638;2023-04-24T11:20:04;98991.02;;;22.37;48.44
68380;BME280;57711;53.196;19.638;2023-04-24T11:22:53;98995.56;;;22.45;48.22
68380;BME280;57711;53.196;19.638;2023-04-24T11:25:24;98998.61;;;22.44;48.21
68380;BME280;57711;53.196;19.638;2023-04-24T11:28:03;98995.17;;;22.36;48.05
68380;BME280;57711;53.196;19.638;2023-04-24T11:30:31;98995.86;;;22.24;48.08
68380;BME280;57711;53.196;19.638;2023-04-24T11:33:04;99003.14;;;22.14;47.87
68380;BME280;57711;53.196;19.638;2023-04-24T11:35:39;98996.71;;;22.05;47.82
68380;BME280;57711;53.196;19.638;2023-04-24T11:38:07;98994.30;;;21.98;47.72
68380;BME280;57711;53.196;19.638;2023-04-24T11:40:51;98993.15;;;21.94;47.64
68380;BME280;57711;53.196;19.638;2023-04-24T11:43:19;98991.14;;;21.90;47.67
68380;BME280;57711;53.196;19.638;2023-04-24T11:45:50;98990.13;;;21.83;47.61
68380;BME280;57711;53.196;19.638;2023-04-24T11:48:20;98994.11;;;21.75;47.43
68380;BME280;57711;53.196;19.638;2023-04-24T11:50:50;98988.36;;;21.64;47.39
68380;BME280;57711;53.196;19.638;2023-04-24T11:53:20;98986.45;;;21.58;47.42
68380;BME280;57711;53.196;19.638;2023-04-24T11:55:48;98989.25;;;21.53;47.23
68380;BME280;57711;53.196;19.638;2023-04-24T11:58:20;98989.29;;;21.47;47.20
68380;BME280;57711;53.196;19.638;2023-04-24T12:00:55;98989.15;;;21.45;47.26
68380;BME280;57711;53.196;19.638;2023-04-24T12:03:23;98991.48;;;21.38;47.09
68380;BME280;57711;53.196;19.638;2023-04-24T12:05:50;98989.48;;;21.28;46.72
68380;BME280;57711;53.196;19.638;2023-04-24T12:08:29;98985.73;;;21.18;46.90
68380;BME280;57711;53.196;19.638;2023-04-24T12:10:56;98984.40;;;21.09;46.72
68380;BME280;57711;53.196;19.638;2023-04-24T12:13:25;98978.52;;;20.98;46.74
68380;BME280;57711;53.196;19.638;2023-04-24T12:15:52;98977.58;;;20.91;46.70
68380;BME280;57711;53.196;19.638;2023-04-24T12:18:23;98974.91;;;20.88;46.71
68380;BME280;57711;53.196;19.638;2023-04-24T12:20:51;98973.08;;;20.86;46.69
68380;BME280;57711;53.196;19.638;2023-04-24T12:23:35;98970.98;;;20.82;46.65
68380;BME280;57711;53.196;19.638;2023-04-24T12:26:05;98967.86;;;20.78;46.62
68380;BME280;57711;53.196;19.638;2023-04-24T12:28:36;98964.62;;;20.76;46.57
68380;BME280;57711;53.196;19.638;2023-04-24T12:31:06;98959.34;;;20.74;46.49
68380;BME280;57711;53.196;19.638;2023-04-24T12:33:35;98959.24;;;20.75;46.43
68380;BME280;57711;53.196;19.638;2023-04-24T12:36:02;98957.77;;;20.75;46.51
68380;BME280;57711;53.196;19.638;2023-04-24T12:38:29;98959.69;;;20.75;46.44
68380;BME280;57711;53.196;19.638;2023-04-24T12:41:05;98956.56;;;20.73;46.38
68380;BME280;57711;53.196;19.638;2023-04-24T12:43:33;98955.73;;;20.73;46.39
68380;BME280;57711;53.196;19.638;2023-04-24T12:46:01;98953.41;;;20.71;46.29
68380;BME280;57711;53.196;19.638;2023-04-24T12:48:29;98945.10;;;20.69;46.18
68380;BME280;57711;53.196;19.638;2023-04-24T12:50:59;98948.16;;;20.68;46.19
68380;BME280;57711;53.196;19.638;2023-04-24T12:53:29;98942.40;;;20.69;46.05
68380;BME280;57711;53.196;19.638;2023-04-24T12:55:58;98939.65;;;20.69;45.89
68380;BME280;57711;53.196;19.638;2023-04-24T12:58:25;98933.02;;;20.69;45.96
68380;BME280;57711;53.196;19.638;2023-04-24T13:00:52;98931.61;;;20.70;45.84
68380;BME280;57711;53.196;19.638;2023-04-24T13:03:20;98930.48;;;20.71;45.67
68380;BME280;57711;53.196;19.638;2023-04-24T13:05:47;98923.77;;;20.72;45.69